Time;durP1;ratioP1;P1;durP2;ratioP2;P2;SDS_P1;SDS_P2;PMS_P1;PMS_P2;Temp;Humidity;BMP_temperature;BMP_pressure;BME280_temperature;BME280_humidity;BME280_pressure;Samples;Min_cycle;Max_cycle;Signal;HPM_P1;HPM_P2
2022/09/10 00:01:07;;;;;;;;;;;;;;;7.33;100.00;99351.94;6247649;22;20048;-90
2022/09/10 00:03:32;;;;;;;;;;;;;;;7.28;100.00;99360.03;6275615;22;19953;-89
2022/09/10 00:05:58;;;;;;;;;;;;;;;7.24;100.00;99352.28;6273454;22;20334;-89
2022/09/10 00:08:23;;;;;;;;;;;;;;;7.26;100.00;99355.75;6276164;22;19915;-90
2022/09/10 00:10:50;;;;;;;;;;;;;;;7.23;100.00;99355.84;6276750;22;19917;-93
2022/09/10 00:13:17;;;;;;;;;;;;;;;7.27;100.00;99355.69;6250323;22;19911;-86
2022/09/10 00:15:48;;;;;;;;;;;;;;;7.24;100.00;99362.81;6247808;22;20348;-94
2022/09/10 00:18:15;;;;;;;;;;;;;;;7.22;100.00;99348.84;6276216;22;19915;-88
2022/09/10 00:20:46;;;;;;;;;;;;;;;7.27;100.00;99352.16;6274023;22;19957;-90
2022/09/10 00:23:12;;;;;;;;;;;;;;;7.21;100.00;99348.00;6276016;22;20357;-88
2022/09/10 00:25:37;;;;;;;;;;;;;;;7.21;100.00;99347.13;6254830;22;19987;-95
2022/09/10 00:28:03;;;;;;;;;;;;;;;7.21;100.00;99348.00;6280967;22;19950;-91
2022/09/10 00:30:28;;;;;;;;;;;;;;;7.20;100.00;99345.41;6279793;22;19911;-91
2022/09/10 00:33:12;;;;;;;;;;;;;;;7.19;100.00;99347.16;6279115;22;19968;-91
2022/09/10 00:35:39;;;;;;;;;;;;;;;7.20;100.00;99334.88;6279077;22;19911;-91
2022/09/10 00:38:04;;;;;;;;;;;;;;;7.15;100.00;99344.69;6277284;22;20335;-89
2022/09/10 00:40:30;;;;;;;;;;;;;;;7.17;100.00;99345.53;6250289;22;19969;-95
2022/09/10 00:42:55;;;;;;;;;;;;;;;7.17;100.00;99337.63;6254081;22;20262;-95
2022/09/10 00:45:28;;;;;;;;;;;;;;;7.15;100.00;99337.69;6279250;22;19911;-90
2022/09/10 00:47:57;;;;;;;;;;;;;;;7.18;100.00;99341.97;6277410;22;20334;-91
2022/09/10 00:50:27;;;;;;;;;;;;;;;7.16;100.00;99339.38;6277936;22;20330;-90
2022/09/10 00:52:57;;;;;;;;;;;;;;;7.15;100.00;99339.44;6278764;22;19912;-93
2022/09/10 00:55:22;;;;;;;;;;;;;;;7.17;100.00;99334.97;6276797;22;20335;-91
2022/09/10 06:38:22;;;;;;;;;;;;;;;6.46;100.00;99387.41;6199023;22;20301;-91
2022/09/10 06:40:54;;;;;;;;;;;;;;;6.39;100.00;99388.53;6276372;22;19916;-91
2022/09/10 06:43:24;;;;;;;;;;;;;;;6.44;100.00;99392.72;6276137;22;19922;-94
2022/09/10 06:45:51;;;;;;;;;;;;;;;6.43;100.00;99395.41;6277475;22;19989;-96
2022/09/10 06:48:17;;;;;;;;;;;;;;;6.44;100.00;99391.88;6249144;22;20243;-93
2022/09/10 06:50:49;;;;;;;;;;;;;;;6.40;100.00;99392.88;6276548;22;19918;-94
2022/09/10 06:53:14;;;;;;;;;;;;;;;6.40;100.00;99399.03;6275443;22;19986;-94
2022/09/10 06:55:39;;;;;;;;;;;;;;;6.45;100.00;99398.88;6276129;22;19985;-91
2022/09/10 06:58:04;;;;;;;;;;;;;;;6.47;100.00;99405.78;6277306;22;19919;-91
2022/09/10 07:00:31;;;;;;;;;;;;;;;6.44;100.00;99410.31;6277398;22;19915;-93
2022/09/10 07:02:59;;;;;;;;;;;;;;;6.49;100.00;99416.28;6276267;22;19939;-91
2022/09/10 07:05:26;;;;;;;;;;;;;;;6.49;100.00;99406.63;6276291;22;19911;-91
2022/09/10 07:07:51;;;;;;;;;;;;;;;6.54;100.00;99409.09;6275340;22;19922;-93
2022/09/10 07:58:46;;;;;;;;;;;;;;;6.28;100.00;99444.13;6274441;22;19930;-91
2022/09/10 08:01:11;;;;;;;;;;;;;;;6.26;100.00;99440.69;6274039;22;20297;-92
2022/09/10 08:03:37;;;;;;;;;;;;;;;6.38;100.00;99444.69;6273991;22;19917;-91
2022/09/10 08:06:03;;;;;;;;;;;;;;;6.41;100.00;99444.63;6275758;22;19934;-91
2022/09/10 08:08:32;;;;;;;;;;;;;;;6.43;100.00;99442.78;6275432;22;20331;-91
2022/09/10 08:11:15;;;;;;;;;;;;;;;6.48;100.00;99443.53;6272750;22;19922;-93
2022/09/10 08:13:41;;;;;;;;;;;;;;;6.42;100.00;99451.59;6274956;22;20017;-92
2022/09/10 08:16:07;;;;;;;;;;;;;;;6.49;100.00;99450.50;6274655;22;20282;-92
2022/09/10 08:18:34;;;;;;;;;;;;;;;6.46;100.00;99453.22;6275556;22;19915;-91
2022/09/10 08:20:59;;;;;;;;;;;;;;;6.47;100.00;99454.94;6275833;22;19984;-90
2022/09/10 08:23:25;;;;;;;;;;;;;;;6.51;100.00;99457.44;6275604;22;20319;-93
2022/09/10 08:25:50;;;;;;;;;;;;;;;6.54;100.00;99459.09;6273860;22;19994;-92
2022/09/10 08:28:18;;;;;;;;;;;;;;;6.55;100.00;99458.19;6275980;22;19919;-92
2022/09/10 08:30:55;;;;;;;;;;;;;;;6.60;100.00;99464.16;6248719;22;19911;-90
2022/09/10 08:33:20;;;;;;;;;;;;;;;6.56;100.00;99470.47;6275386;22;19922;-92
2022/09/10 08:35:50;;;;;;;;;;;;;;;6.57;100.00;99466.03;6276600;22;19915;-88
2022/09/10 08:38:16;;;;;;;;;;;;;;;6.58;100.00;99473.03;6276287;22;19965;-88
2022/09/10 08:40:42;;;;;;;;;;;;;;;6.58;100.00;99473.91;6273613;22;20273;-89
2022/09/10 08:43:08;;;;;;;;;;;;;;;6.62;100.00;99482.56;6275638;22;19911;-89
2022/09/10 08:45:34;;;;;;;;;;;;;;;6.55;100.00;99474.00;6276203;22;19911;-89
2022/09/10 08:48:19;;;;;;;;;;;;;;;6.57;100.00;99481.84;6250637;22;19912;-88
2022/09/10 08:50:56;;;;;;;;;;;;;;;6.58;100.00;99481.78;6249844;22;19911;-89
2022/09/10 08:53:40;;;;;;;;;;;;;;;6.55;100.00;99481.88;6277259;22;19911;-89
2022/09/10 08:56:12;;;;;;;;;;;;;;;6.55;100.00;99481.88;6275904;22;19911;-89
2022/09/10 08:58:42;;;;;;;;;;;;;;;6.50;100.00;99484.66;6276857;22;19922;-88
2022/09/10 09:01:10;;;;;;;;;;;;;;;6.52;100.00;99484.63;6277688;22;19911;-90
2022/09/10 09:03:39;;;;;;;;;;;;;;;6.47;100.00;99486.53;6277030;22;19911;-89
2022/09/10 09:06:07;;;;;;;;;;;;;;;6.53;100.00;99494.25;6277171;22;20385;-87
2022/09/10 09:08:35;;;;;;;;;;;;;;;6.49;100.00;99493.50;6276937;22;19915;-88
2022/09/10 09:11:12;;;;;;;;;;;;;;;6.49;100.00;99492.59;6275787;22;19922;-86
2022/09/10 09:13:37;;;;;;;;;;;;;;;6.59;100.00;99501.06;6275162;22;20295;-86
2022/09/10 09:16:29;;;;;;;;;;;;;;;6.48;100.00;99497.03;6275779;22;19922;-86
2022/09/10 09:19:16;;;;;;;;;;;;;;;6.62;100.00;99498.34;6276943;22;19926;-86
2022/09/10 09:21:44;;;;;;;;;;;;;;;6.62;100.00;99490.44;6275292;22;19915;-86
2022/09/10 09:24:18;;;;;;;;;;;;;;;6.55;100.00;99502.94;6275696;22;20045;-88
2022/09/10 09:26:45;;;;;;;;;;;;;;;6.61;100.00;99491.38;6273726;22;19922;-89
2022/09/10 09:29:11;;;;;;;;;;;;;;;6.70;100.00;99504.22;6250224;22;19916;-89
2022/09/10 09:31:41;;;;;;;;;;;;;;;6.61;100.00;99499.28;6277014;22;19912;-89
2022/09/10 09:34:17;;;;;;;;;;;;;;;6.59;100.00;99506.34;6277059;22;20315;-88
2022/09/10 09:36:46;;;;;;;;;;;;;;;6.60;100.00;99502.81;6276756;22;19923;-90
2022/09/10 09:39:26;;;;;;;;;;;;;;;6.65;100.00;99516.69;6277236;22;19943;-90
2022/09/10 09:41:58;;;;;;;;;;;;;;;6.60;100.00;99514.19;6275722;22;19911;-87
2022/09/10 09:44:27;;;;;;;;;;;;;;;6.65;100.00;99508.78;6277066;22;19989;-88
2022/09/10 09:46:52;;;;;;;;;;;;;;;6.59;100.00;99511.59;6276703;22;19915;-88
2022/09/10 09:49:18;;;;;;;;;;;;;;;6.66;100.00;99503.47;6276766;22;19916;-89
2022/09/10 09:51:45;;;;;;;;;;;;;;;6.64;100.00;99507.94;6276820;22;19969;-89
2022/09/10 09:54:14;;;;;;;;;;;;;;;6.61;100.00;99513.28;6276975;22;19938;-87
2022/09/10 09:56:45;;;;;;;;;;;;;;;6.54;100.00;99514.38;6247381;22;20515;-86
2022/09/10 09:59:24;;;;;;;;;;;;;;;6.60;100.00;99514.19;6274985;22;20323;-87
2022/09/10 10:01:50;;;;;;;;;;;;;;;6.55;100.00;99514.34;6276386;22;19915;-89
2022/09/10 10:04:21;;;;;;;;;;;;;;;6.56;100.00;99512.59;6276493;22;19961;-87
2022/09/10 10:07:40;;;;;;;;;;;;;;;6.63;100.00;99513.25;6275731;22;20191;-86
2022/09/10 10:09:59;;;;;;;;;;;;;;;6.62;100.00;99520.28;6270114;22;20212;-89
2022/09/10 10:12:41;;;;;;;;;;;;;;;6.57;100.00;99509.03;6275736;22;19951;-86
2022/09/10 10:15:25;;;;;;;;;;;;;;;6.53;100.00;99515.31;6276313;22;19973;-86
2022/09/10 10:17:50;;;;;;;;;;;;;;;6.64;100.00;99512.34;6274583;22;19919;-86
2022/09/10 10:20:34;;;;;;;;;;;;;;;6.61;100.00;99502.75;6249192;22;20251;-87
2022/09/10 10:23:19;;;;;;;;;;;;;;;6.52;100.00;99508.31;6276176;22;20006;-91
2022/09/10 10:25:47;;;;;;;;;;;;;;;6.57;100.00;99503.75;6248086;22;19911;-89
2022/09/10 10:28:23;;;;;;;;;;;;;;;6.59;100.00;99506.34;6274750;22;20245;-90
2022/09/10 10:30:50;;;;;;;;;;;;;;;6.63;100.00;99510.63;6276169;22;19950;-89
2022/09/10 10:33:20;;;;;;;;;;;;;;;6.57;100.00;99511.66;6276309;22;20346;-88
2022/09/10 10:35:50;;;;;;;;;;;;;;;6.60;100.00;99518.59;6276181;22;19993;-87
2022/09/10 10:38:21;;;;;;;;;;;;;;;6.51;100.00;99517.09;6276375;22;19918;-86
2022/09/10 10:41:06;;;;;;;;;;;;;;;6.58;100.00;99517.81;6274387;22;20230;-88
2022/09/10 10:43:32;;;;;;;;;;;;;;;6.58;100.00;99512.53;6276118;22;19911;-86
2022/09/10 10:46:26;;;;;;;;;;;;;;;6.54;100.00;99512.63;6274950;22;20288;-88
2022/09/10 10:49:10;;;;;;;;;;;;;;;6.58;100.00;99517.81;6262478;22;19915;-87
2022/09/10 10:51:41;;;;;;;;;;;;;;;6.57;100.00;99514.28;6276169;22;19912;-87
2022/09/10 10:54:09;;;;;;;;;;;;;;;6.54;100.00;99512.63;6276079;22;19918;-88
2022/09/10 10:56:41;;;;;;;;;;;;;;;6.49;100.00;99511.03;6274118;22;20339;-88
2022/09/10 10:59:22;;;;;;;;;;;;;;;6.49;100.00;99509.28;6275562;22;19923;-86
2022/09/10 11:01:51;;;;;;;;;;;;;;;6.40;100.00;99513.94;6274426;22;20381;-88
2022/09/10 11:04:21;;;;;;;;;;;;;;;6.58;100.00;99510.75;6276080;22;19918;-87
2022/09/10 11:06:51;;;;;;;;;;;;;;;6.57;100.00;99503.75;6275888;22;20433;-87
2022/09/10 11:09:37;;;;;;;;;;;;;;;6.49;100.00;99506.66;6276046;22;20231;-91
2022/09/10 11:12:10;;;;;;;;;;;;;;;6.47;100.00;99497.06;6263450;22;20254;-89
2022/09/10 11:14:58;;;;;;;;;;;;;;;6.46;100.00;99498.84;6275798;22;20001;-90
2022/09/10 11:17:26;;;;;;;;;;;;;;;6.46;100.00;99508.50;6275842;22;20350;-90
2022/09/10 11:20:07;;;;;;;;;;;;;;;6.48;100.00;99504.06;6276595;22;19995;-91
2022/09/10 11:22:39;;;;;;;;;;;;;;;6.43;100.00;99504.19;6274368;22;19918;-88
2022/09/10 11:25:15;;;;;;;;;;;;;;;6.50;100.00;99510.13;6274171;22;20016;-90
2022/09/10 11:27:55;;;;;;;;;;;;;;;6.44;100.00;99508.53;6275767;22;20223;-92
2022/09/10 11:30:21;;;;;;;;;;;;;;;6.38;100.00;99510.50;6276049;22;19951;-90
2022/09/10 11:32:57;;;;;;;;;;;;;;;6.45;100.00;99512.06;6249885;22;19934;-91
2022/09/10 11:35:32;;;;;;;;;;;;;;;6.33;100.00;99508.88;6277762;22;20073;-87
2022/09/10 11:38:19;;;;;;;;;;;;;;;6.40;100.00;99503.41;6275860;22;19911;-87
2022/09/10 11:41:13;;;;;;;;;;;;;;;6.40;100.00;99506.91;6274737;22;19922;-87
2022/09/10 11:43:49;;;;;;;;;;;;;;;6.39;100.00;99497.28;6275589;22;19918;-90
2022/09/10 11:46:20;;;;;;;;;;;;;;;6.39;100.00;99505.19;6275704;22;19915;-89
2022/09/10 11:48:48;;;;;;;;;;;;;;;6.31;100.00;99500.16;6275541;22;19915;-90
2022/09/10 11:51:29;;;;;;;;;;;;;;;6.33;100.00;99510.63;6275739;22;19990;-91
2022/09/10 11:53:55;;;;;;;;;;;;;;;6.35;100.00;99503.53;6248270;22;20286;-91
2022/09/10 11:56:35;;;;;;;;;;;;;;;6.38;100.00;99508.72;6274328;22;20003;-92
2022/09/10 11:59:29;;;;;;;;;;;;;;;6.44;100.00;99503.28;6248378;22;19956;-92
2022/09/10 12:01:54;;;;;;;;;;;;;;;6.41;100.00;99510.41;6127934;22;19928;-91
2022/09/10 12:04:41;;;;;;;;;;;;;;;6.39;100.00;99507.81;6248019;22;19913;-92
2022/09/10 12:07:13;;;;;;;;;;;;;;;6.38;100.00;99503.44;6121340;23;19924;-92
2022/09/10 12:09:50;;;;;;;;;;;;;;;6.43;100.00;99508.59;6248218;22;19913;-90
2022/09/10 12:12:28;;;;;;;;;;;;;;;6.36;100.00;99494.75;6119345;23;20312;-92
2022/09/10 12:14:54;;;;;;;;;;;;;;;6.35;100.00;99501.78;6120753;23;20447;-89
2022/09/10 12:17:27;;;;;;;;;;;;;;;6.41;100.00;99502.50;6120943;23;20321;-90
2022/09/10 12:19:54;;;;;;;;;;;;;;;6.35;100.00;99499.16;6121422;23;19988;-92
2022/09/10 12:22:20;;;;;;;;;;;;;;;6.47;100.00;99497.06;6121971;23;19919;-89
2022/09/10 12:24:54;;;;;;;;;;;;;;;6.40;100.00;99499.03;6122607;23;19913;-89
2022/09/10 12:27:19;;;;;;;;;;;;;;;6.43;100.00;99496.31;6121603;23;19920;-92
2022/09/10 12:29:45;;;;;;;;;;;;;;;6.47;100.00;99491.81;6122106;23;19917;-89
2022/09/10 12:32:13;;;;;;;;;;;;;;;6.46;100.00;99496.22;6122131;23;19984;-89
2022/09/10 12:34:39;;;;;;;;;;;;;;;6.31;100.00;99494.88;6122594;23;20055;-91
2022/09/10 12:37:04;;;;;;;;;;;;;;;6.35;100.00;99500.91;6122308;23;19951;-90
2022/09/10 12:39:30;;;;;;;;;;;;;;;6.40;100.00;99498.16;6122212;23;19917;-91
2022/09/10 12:41:59;;;;;;;;;;;;;;;6.35;100.00;99499.16;6120554;23;19917;-91
2022/09/10 12:44:28;;;;;;;;;;;;;;;6.41;100.00;99503.38;6122622;23;19920;-93
2022/09/10 12:47:12;;;;;;;;;;;;;;;6.49;100.00;99500.50;6250411;22;19909;-93
2022/09/10 12:49:48;;;;;;;;;;;;;;;6.45;100.00;99507.63;6122348;23;19916;-90
2022/09/10 12:52:20;;;;;;;;;;;;;;;6.36;100.00;99506.13;6122084;23;19909;-92
2022/09/10 12:54:54;;;;;;;;;;;;;;;6.36;100.00;99510.53;6121999;23;19920;-90
2022/09/10 12:57:32;;;;;;;;;;;;;;;6.32;100.00;99509.78;6181753;22;19920;-91
2022/09/10 13:00:01;;;;;;;;;;;;;;;6.37;100.00;99507.00;6277195;22;20045;-91
2022/09/10 13:02:32;;;;;;;;;;;;;;;6.34;100.00;99500.06;6277276;22;19934;-91
2022/09/10 13:04:59;;;;;;;;;;;;;;;6.38;100.00;99507.88;6249948;22;20255;-90
2022/09/10 13:07:32;;;;;;;;;;;;;;;6.35;100.00;99508.81;6277524;22;20274;-90
2022/09/10 13:10:00;;;;;;;;;;;;;;;6.43;100.00;99504.19;6276565;22;20335;-90
2022/09/10 13:12:26;;;;;;;;;;;;;;;6.51;100.00;99506.56;6249994;22;19933;-90
2022/09/10 13:14:53;;;;;;;;;;;;;;;6.40;100.00;99500.78;6250268;22;19915;-90
2022/09/10 13:17:35;;;;;;;;;;;;;;;6.46;100.00;99500.59;6276896;22;19934;-91
2022/09/10 13:20:11;;;;;;;;;;;;;;;6.43;100.00;99504.19;6276939;22;19950;-91
2022/09/10 13:22:55;;;;;;;;;;;;;;;6.45;100.00;99504.16;6275819;22;19915;-90
2022/09/10 13:25:35;;;;;;;;;;;;;;;6.34;100.00;99507.09;6273761;22;19916;-91
2022/09/10 13:28:02;;;;;;;;;;;;;;;6.41;100.00;99507.78;6249902;22;19951;-89
2022/09/10 13:30:27;;;;;;;;;;;;;;;6.51;100.00;99509.22;6250281;22;20425;-92
2022/09/10 13:33:03;;;;;;;;;;;;;;;6.48;100.00;99498.81;6275192;22;19950;-90
2022/09/10 13:35:47;;;;;;;;;;;;;;;6.40;100.00;99495.50;6276963;22;19919;-91
2022/09/10 13:38:38;;;;;;;;;;;;;;;6.33;100.00;99495.72;6276684;22;19914;-91
2022/09/10 13:41:24;;;;;;;;;;;;;;;6.28;100.00;99500.25;6251722;22;20235;-92
2022/09/10 13:44:01;;;;;;;;;;;;;;;6.28;100.00;99502.88;6276364;22;19986;-91
2022/09/10 13:46:29;;;;;;;;;;;;;;;6.29;100.00;99496.72;6276714;22;19907;-90
2022/09/10 13:49:05;;;;;;;;;;;;;;;6.36;100.00;99485.06;6276636;22;19925;-91
2022/09/10 13:51:36;;;;;;;;;;;;;;;6.38;100.00;99487.66;6275277;22;19994;-91
2022/09/10 13:54:13;;;;;;;;;;;;;;;11.11;100.00;99481.22;6275026;22;19923;-88
2022/09/10 13:56:41;;;;;;;;;;;;;;;7.71;100.00;99481.53;6275092;22;19911;-90
2022/09/10 13:59:14;;;;;;;;;;;;;;;7.15;100.00;99494.88;6274908;22;19916;-90
2022/09/10 14:01:48;;;;;;;;;;;;;;;6.93;100.00;99492.13;6276675;22;20385;-89
2022/09/10 14:04:40;;;;;;;;;;;;;;;6.73;100.00;99489.22;6276573;22;19911;-90
2022/09/10 14:07:11;;;;;;;;;;;;;;;6.62;100.00;99485.19;6273093;22;19915;-91
2022/09/10 14:09:40;;;;;;;;;;;;;;;6.65;100.00;99493.88;6276311;22;19911;-89
2022/09/10 14:12:07;;;;;;;;;;;;;;;6.56;100.00;99496.78;6275333;22;20002;-89
2022/09/10 14:14:36;;;;;;;;;;;;;;;6.67;100.00;99499.06;6276649;22;20385;-90
2022/09/10 14:17:03;;;;;;;;;;;;;;;6.54;100.00;99495.94;6274868;22;19918;-90
2022/09/10 14:19:32;;;;;;;;;;;;;;;6.52;100.00;99490.72;6276637;22;19911;-89
2022/09/10 14:21:57;;;;;;;;;;;;;;;6.49;100.00;99501.38;6276216;22;19911;-90
2022/09/10 14:24:43;;;;;;;;;;;;;;;6.53;100.00;99496.88;6276842;22;19969;-89
2022/09/10 14:27:27;;;;;;;;;;;;;;;6.56;100.00;99494.16;6247064;22;20295;-91
2022/09/10 14:29:56;;;;;;;;;;;;;;;6.50;100.00;99496.97;6276765;22;19911;-90
2022/09/10 14:32:21;;;;;;;;;;;;;;;6.51;100.00;99488.16;6249467;22;20285;-89
2022/09/10 14:34:47;;;;;;;;;;;;;;;6.45;100.00;99494.47;6276784;22;19916;-90
2022/09/10 14:37:31;;;;;;;;;;;;;;;6.42;100.00;99488.44;6249283;22;19934;-89
2022/09/10 14:40:00;;;;;;;;;;;;;;;6.44;100.00;99486.63;6275665;22;19968;-91
2022/09/10 14:42:30;;;;;;;;;;;;;;;6.58;100.00;99479.16;6249240;22;20346;-92
2022/09/10 14:44:55;;;;;;;;;;;;;;;6.53;100.00;99475.81;6249504;22;19915;-89
2022/09/10 14:47:33;;;;;;;;;;;;;;;6.41;100.00;99478.81;6274699;22;19961;-91
2022/09/10 14:50:18;;;;;;;;;;;;;;;6.40;100.00;99472.72;6249096;22;19915;-90
2022/09/10 14:52:43;;;;;;;;;;;;;;;6.42;100.00;99480.56;6274767;22;19911;-89
2022/09/10 14:55:09;;;;;;;;;;;;;;;6.43;100.00;99477.88;6274797;22;19915;-89
2022/09/10 14:57:36;;;;;;;;;;;;;;;6.41;100.00;99473.56;6275628;22;20362;-89
2022/09/10 15:00:03;;;;;;;;;;;;;;;6.45;100.00;99472.56;6276211;22;19961;-91
2022/09/10 15:02:29;;;;;;;;;;;;;;;6.39;100.00;99478.88;6275952;22;19919;-91
2022/09/10 15:04:54;;;;;;;;;;;;;;;6.36;100.00;99471.91;6276115;22;19946;-90
2022/09/10 15:07:19;;;;;;;;;;;;;;;6.34;100.00;99475.53;6274287;22;20353;-90
2022/09/10 15:09:45;;;;;;;;;;;;;;;6.34;100.00;99484.28;6276210;22;19911;-91
2022/09/10 15:12:14;;;;;;;;;;;;;;;6.39;100.00;99478.03;6246865;22;19911;-90
2022/09/10 15:14:39;;;;;;;;;;;;;;;6.32;100.00;99478.19;6249274;22;19938;-89
2022/09/10 15:17:05;;;;;;;;;;;;;;;6.28;100.00;99475.72;6275284;22;19915;-89
2022/09/10 15:19:30;;;;;;;;;;;;;;;6.36;100.00;99474.56;6274922;22;19911;-90
2022/09/10 15:21:56;;;;;;;;;;;;;;;6.34;100.00;99478.16;6275801;22;20386;-88
2022/09/10 15:24:22;;;;;;;;;;;;;;;6.39;100.00;99478.03;6247064;22;19946;-93
2022/09/10 15:26:51;;;;;;;;;;;;;;;6.27;100.00;99474.84;6244176;22;19907;-93
2022/09/10 15:29:16;;;;;;;;;;;;;;;6.27;100.00;99480.13;6276774;22;19913;-89
2022/09/10 15:31:45;;;;;;;;;;;;;;;6.36;100.00;99473.69;6248097;22;20215;-89
2022/09/10 15:34:13;;;;;;;;;;;;;;;6.45;100.00;99477.84;6275639;22;19941;-91
2022/09/10 15:36:39;;;;;;;;;;;;;;;6.35;100.00;99480.75;6247116;22;19950;-91
2022/09/10 15:39:10;;;;;;;;;;;;;;;6.43;100.00;99490.16;6274326;22;19914;-89
2022/09/10 15:41:39;;;;;;;;;;;;;;;6.45;100.00;99477.84;6271714;22;20362;-89
2022/09/10 15:44:04;;;;;;;;;;;;;;;6.41;100.00;99491.97;6273525;22;19911;-86
2022/09/10 15:46:30;;;;;;;;;;;;;;;6.26;100.00;99488.91;6274607;22;20341;-88
2022/09/10 15:48:58;;;;;;;;;;;;;;;6.39;100.00;99478.03;6274742;22;20284;-88
2022/09/10 15:51:23;;;;;;;;;;;;;;;6.23;100.00;99481.09;6247822;22;19921;-85
2022/09/10 15:53:50;;;;;;;;;;;;;;;6.29;100.00;99488.81;6269221;22;20290;-93
2022/09/10 15:56:15;;;;;;;;;;;;;;;6.24;100.00;99477.56;6216876;23;20331;-92
2022/09/10 15:58:46;;;;;;;;;;;;;;;6.24;100.00;99474.94;6244273;23;19920;-89
2022/09/10 16:01:14;;;;;;;;;;;;;;;6.17;100.00;99478.66;6218445;23;19923;-87
2022/09/10 16:03:54;;;;;;;;;;;;;;;6.30;100.00;99477.41;6243972;23;19969;-87
2022/09/10 16:06:20;;;;;;;;;;;;;;;6.24;100.00;99488.09;6243230;23;20328;-90
2022/09/10 16:08:48;;;;;;;;;;;;;;;6.15;100.00;99486.59;6241343;23;19922;-88
2022/09/10 16:11:13;;;;;;;;;;;;;;;6.20;100.00;99489.09;6215596;23;19955;-89
2022/09/10 16:13:38;;;;;;;;;;;;;;;6.15;100.00;99486.59;6242385;23;19915;-89
2022/09/10 16:16:08;;;;;;;;;;;;;;;6.18;100.00;99488.28;6218759;23;19915;-89
2022/09/10 16:18:37;;;;;;;;;;;;;;;6.23;100.00;99488.16;6244933;23;19912;-91
2022/09/10 16:21:17;;;;;;;;;;;;;;;6.19;100.00;99487.38;6218039;23;19915;-90
2022/09/10 16:23:49;;;;;;;;;;;;;;;6.19;100.00;99476.84;6245405;23;19915;-92
2022/09/10 16:26:15;;;;;;;;;;;;;;;6.12;100.00;99477.94;6243482;23;19912;-89
2022/09/10 16:29:09;;;;;;;;;;;;;;;6.13;100.00;99477.88;6244225;23;19923;-89
2022/09/10 16:31:36;;;;;;;;;;;;;;;6.13;100.00;99482.28;6240362;23;19915;-91
2022/09/10 16:34:03;;;;;;;;;;;;;;;6.10;100.00;99485.00;6245693;23;19912;-90
2022/09/10 16:36:32;;;;;;;;;;;;;;;6.11;100.00;99484.97;6244898;23;19916;-89
2022/09/10 16:39:00;;;;;;;;;;;;;;;6.09;100.00;99492.03;6244958;23;19918;-90
2022/09/10 16:44:45;;;;;;;;;;;;;;;6.04;100.00;99503.59;6192663;23;19922;-89
2022/09/10 16:47:10;;;;;;;;;;;;;;;6.03;100.00;99501.88;6244580;23;19931;-92
2022/09/10 16:52:39;;;;;;;;;;;;;;;6.11;100.00;99511.28;6243669;23;20294;-87
2022/09/10 16:55:05;;;;;;;;;;;;;;;6.05;100.00;99518.47;6215302;23;19961;-87
2022/09/10 16:57:31;;;;;;;;;;;;;;;6.08;100.00;99521.88;6243494;23;19998;-89
2022/09/10 16:59:57;;;;;;;;;;;;;;;6.07;100.00;99527.19;6244668;23;19951;-89
2022/09/10 17:02:22;;;;;;;;;;;;;;;6.15;100.00;99533.09;6244905;23;19912;-89
2022/09/10 17:04:47;;;;;;;;;;;;;;;6.16;100.00;99533.03;6244528;23;19916;-90
2022/09/10 17:10:33;;;;;;;;;;;;;;;6.09;100.00;99526.22;6121756;23;19964;-88
2022/09/10 17:13:35;;;;;;;;;;;;;;;;;;;;;
2022/09/10 17:16:42;;;;;;;;;;;;;;;6.14;100.00;99533.97;6122924;23;19992;-88
2022/09/10 17:19:22;;;;;;;;;;;;;;;6.10;100.00;99540.25;6035816;23;19921;-89
2022/09/10 17:25:10;;;;;;;;;;;;;;;6.09;100.00;99552.53;6122072;23;19971;-89
2022/09/10 17:27:36;;;;;;;;;;;;;;;6.06;100.00;99549.13;6121901;23;20376;-89
2022/09/10 17:32:37;;;;;;;;;;;;;;;6.03;100.00;99547.47;6267050;22;19919;-87
2022/09/10 17:35:02;;;;;;;;;;;;;;;6.03;100.00;99544.84;6247476;22;20230;-88
2022/09/10 17:38:00;;;;;;;;;;;;;;;6.04;100.00;99543.91;6276396;22;19919;-90
2022/09/10 17:40:25;;;;;;;;;;;;;;;6.09;100.00;99543.78;6213600;22;19919;-87
2022/09/10 17:42:50;;;;;;;;;;;;;;;6.03;100.00;99541.31;6275956;22;19915;-87
2022/09/10 17:45:16;;;;;;;;;;;;;;;6.09;100.00;99554.31;6250032;22;20395;-89
2022/09/10 17:47:41;;;;;;;;;;;;;;;6.07;100.00;99556.97;6275434;22;19947;-90
2022/09/10 17:50:16;;;;;;;;;;;;;;;6.11;100.00;99553.38;6274828;22;19911;-88
2022/09/10 17:53:01;;;;;;;;;;;;;;;6.12;100.00;99548.97;6274392;22;19912;-90
2022/09/10 17:58:00;;;;;;;;;;;;;;;6.18;100.00;99559.31;6273731;22;19923;-89
2022/09/10 18:00:32;;;;;;;;;;;;;;;6.12;100.00;99570.00;6276106;22;20366;-87
2022/09/10 18:02:57;;;;;;;;;;;;;;;6.07;100.00;99583.28;6276559;22;19911;-89
2022/09/10 18:05:25;;;;;;;;;;;;;;;6.09;100.00;99585.88;6275810;22;20302;-90
2022/09/10 18:07:50;;;;;;;;;;;;;;;6.04;100.00;99588.63;6276550;22;19938;-89
2022/09/10 18:10:28;;;;;;;;;;;;;;;6.07;100.00;99583.28;6275593;22;19922;-94
2022/09/10 18:12:53;;;;;;;;;;;;;;;6.06;100.00;99585.94;6249671;22;19926;-89
2022/09/10 18:15:18;;;;;;;;;;;;;;;6.11;100.00;99584.06;6276322;22;19908;-88
2022/09/10 18:17:44;;;;;;;;;;;;;;;6.08;100.00;99592.91;6275960;22;20320;-89
2022/09/10 18:20:09;;;;;;;;;;;;;;;6.06;100.00;99596.47;6276051;22;19908;-87
2022/09/10 18:22:36;;;;;;;;;;;;;;;6.10;100.00;99598.13;6275533;22;19943;-88
2022/09/10 18:25:02;;;;;;;;;;;;;;;8.78;100.00;99591.97;6278473;22;19915;-90
2022/09/10 18:30:30;;;;;;;;;;;;;;;6.52;100.00;99608.34;6278294;22;19918;-91
2022/09/10 18:32:56;;;;;;;;;;;;;;;6.39;100.00;99607.81;6277545;22;19916;-94
2022/09/10 18:35:21;;;;;;;;;;;;;;;6.29;100.00;99604.59;6277206;22;19933;-91
2022/09/10 18:37:50;;;;;;;;;;;;;;;6.32;100.00;99611.56;6279216;22;19919;-85
2022/09/10 18:40:24;;;;;;;;;;;;;;;6.18;100.00;99611.94;6277664;22;20413;-90
2022/09/10 18:42:49;;;;;;;;;;;;;;;6.21;100.00;99614.47;6282286;22;19912;-92
2022/09/10 18:45:15;;;;;;;;;;;;;;;6.16;100.00;99616.38;6283284;22;19918;-89
2022/09/10 18:47:41;;;;;;;;;;;;;;;6.16;100.00;99614.59;6249760;22;19915;-89
2022/09/10 18:50:07;;;;;;;;;;;;;;;6.11;100.00;99611.25;6277887;22;19920;-88
2022/09/10 18:52:34;;;;;;;;;;;;;;;6.17;100.00;99620.72;6283678;22;20358;-91
2022/09/10 18:54:59;;;;;;;;;;;;;;;6.18;100.00;99619.81;6252499;22;19908;-91
2022/09/10 18:57:26;;;;;;;;;;;;;;;6.16;100.00;99621.66;6253460;22;19919;-92
2022/09/10 18:59:53;;;;;;;;;;;;;;;6.20;100.00;99625.91;6254333;22;19922;-90
2022/09/10 19:02:19;;;;;;;;;;;;;;;6.13;100.00;99616.47;6277339;22;19922;-90
2022/09/10 19:04:45;;;;;;;;;;;;;;;6.10;100.00;99619.19;6283925;22;19922;-89
2022/09/10 19:07:10;;;;;;;;;;;;;;;6.14;100.00;99620.81;6280880;22;20234;-91
2022/09/10 19:09:36;;;;;;;;;;;;;;;6.13;100.00;99617.31;6280359;22;19957;-90
2022/09/10 19:12:01;;;;;;;;;;;;;;;6.17;100.00;99620.72;6276503;22;19965;-91
2022/09/10 19:14:30;;;;;;;;;;;;;;;6.12;100.00;99617.34;6278570;22;19907;-91
2022/09/10 19:17:00;;;;;;;;;;;;;;;6.15;100.00;99623.38;6282918;22;19912;-91
2022/09/10 19:19:30;;;;;;;;;;;;;;;6.06;100.00;99628.03;6252446;22;19919;-89
2022/09/10 19:22:02;;;;;;;;;;;;;;;6.10;100.00;99629.69;6278679;22;19994;-87
2022/09/10 19:24:28;;;;;;;;;;;;;;;6.10;100.00;99624.44;6251649;22;19933;-93
2022/09/10 19:30:00;;;;;;;;;;;;;;;6.08;100.00;99628.84;6250822;22;20355;-91
2022/09/10 19:32:26;;;;;;;;;;;;;;;6.10;100.00;99625.28;6278353;22;19915;-90
2022/09/10 19:34:51;;;;;;;;;;;;;;;6.14;100.00;99626.06;6256043;22;19931;-89
2022/09/10 19:37:16;;;;;;;;;;;;;;;6.07;100.00;99635.03;6251252;22;19926;-90
2022/09/10 19:40:16;;;;;;;;;;;;;;;6.06;100.00;99628.03;6280942;22;19911;-90
2022/09/10 19:42:41;;;;;;;;;;;;;;;6.10;100.00;99629.69;6285669;22;19915;-91
2022/09/10 19:45:08;;;;;;;;;;;;;;;6.07;100.00;99633.25;6277699;22;19923;-87
2022/09/10 19:47:34;;;;;;;;;;;;;;;6.10;100.00;99637.59;6276804;22;19937;-90
2022/09/10 19:50:00;;;;;;;;;;;;;;;6.12;100.00;99634.00;6281719;22;19918;-88
2022/09/10 19:52:25;;;;;;;;;;;;;;;6.05;100.00;99637.72;6251521;22;19938;-92
2022/09/10 19:54:51;;;;;;;;;;;;;;;6.03;100.00;99638.66;6277377;22;19927;-87
2022/09/10 19:57:19;;;;;;;;;;;;;;;6.00;100.00;99645.72;6275435;22;19918;-93
2022/09/10 19:59:45;;;;;;;;;;;;;;;5.95;100.00;99641.44;6278879;22;19915;-89